sensor_id;sensor_type;location;lat;lon;timestamp;P1;durP1;ratioP1;P2;durP2;ratioP2
24439;SDS011;12618;54.386;18.394;2023-04-24T19:04:44;13.20;;;10.20;;
24439;SDS011;12618;54.386;18.394;2023-04-24T19:07:17;11.60;;;9.80;;
24439;SDS011;12618;54.386;18.394;2023-04-24T19:10:12;13.40;;;9.80;;
24439;SDS011;12618;54.386;18.394;2023-04-24T19:12:47;12.20;;;9.50;;
24439;SDS011;12618;54.386;18.394;2023-04-24T19:15:36;12.50;;;10.00;;
24439;SDS011;12618;54.386;18.394;2023-04-24T19:18:13;13.10;;;9.80;;
24439;SDS011;12618;54.386;18.394;2023-04-24T19:20:48;12.00;;;9.50;;
24439;SDS011;12618;54.386;18.394;2023-04-24T19:23:25;13.20;;;9.30;;
24439;SDS011;12618;54.386;18.394;2023-04-24T19:25:59;9.50;;;7.40;;
24439;SDS011;12618;54.386;18.394;2023-04-24T19:28:33;8.70;;;6.90;;
24439;SDS011;12618;54.386;18.394;2023-04-24T19:31:18;8.50;;;5.60;;
24439;SDS011;12618;54.386;18.394;2023-04-24T19:33:54;9.00;;;6.40;;
24439;SDS011;12618;54.386;18.394;2023-04-24T19:36:26;10.50;;;6.40;;
24439;SDS011;12618;54.386;18.394;2023-04-24T19:38:59;6.40;;;5.50;;
24439;SDS011;12618;54.386;18.394;2023-04-24T19:41:32;6.40;;;5.20;;
24439;SDS011;12618;54.386;18.394;2023-04-24T19:44:13;6.70;;;4.80;;
24439;SDS011;12618;54.386;18.394;2023-04-24T19:46:48;5.50;;;4.60;;
24439;SDS011;12618;54.386;18.394;2023-04-24T19:49:24;6.00;;;5.10;;
24439;SDS011;12618;54.386;18.394;2023-04-24T19:51:57;5.60;;;4.90;;
24439;SDS011;12618;54.386;18.394;2023-04-24T19:54:32;5.80;;;5.00;;
24439;SDS011;12618;54.386;18.394;2023-04-24T19:57:06;5.50;;;4.70;;
24439;SDS011;12618;54.386;18.394;2023-04-24T20:02:13;7.00;;;5.50;;
24439;SDS011;12618;54.386;18.394;2023-04-24T20:04:46;6.20;;;4.70;;
24439;SDS011;12618;54.386;18.394;2023-04-24T20:07:20;7.00;;;4.20;;
24439;SDS011;12618;54.386;18.394;2023-04-24T20:09:53;4.80;;;4.00;;
24439;SDS011;12618;54.386;18.394;2023-04-24T20:12:27;4.10;;;3.70;;
24439;SDS011;12618;54.386;18.394;2023-04-24T20:15:01;4.40;;;3.70;;
24439;SDS011;12618;54.386;18.394;2023-04-24T20:17:36;5.40;;;4.20;;
24439;SDS011;12618;54.386;18.394;2023-04-24T20:20:09;4.50;;;4.00;;
24439;SDS011;12618;54.386;18.394;2023-04-24T20:22:45;4.40;;;3.50;;
24439;SDS011;12618;54.386;18.394;2023-04-24T20:25:18;5.30;;;3.50;;
24439;SDS011;12618;54.386;18.394;2023-04-24T20:27:51;4.70;;;4.20;;
24439;SDS011;12618;54.386;18.394;2023-04-24T20:30:24;5.50;;;4.50;;
24439;SDS011;12618;54.386;18.394;2023-04-24T20:32:57;6.40;;;4.20;;
24439;SDS011;12618;54.386;18.394;2023-04-24T20:35:31;5.20;;;4.10;;
24439;SDS011;12618;54.386;18.394;2023-04-24T20:38:04;5.10;;;4.10;;
24439;SDS011;12618;54.386;18.394;2023-04-24T20:43:27;7.20;;;4.40;;
24439;SDS011;12618;54.386;18.394;2023-04-24T20:46:01;5.30;;;4.60;;
24439;SDS011;12618;54.386;18.394;2023-04-24T20:48:35;5.60;;;4.60;;
24439;SDS011;12618;54.386;18.394;2023-04-24T20:51:08;6.70;;;5.20;;
24439;SDS011;12618;54.386;18.394;2023-04-24T20:53:41;7.80;;;4.90;;
24439;SDS011;12618;54.386;18.394;2023-04-24T20:56:17;6.30;;;5.00;;
24439;SDS011;12618;54.386;18.394;2023-04-24T20:58:52;5.50;;;4.90;;
24439;SDS011;12618;54.386;18.394;2023-04-24T21:01:27;6.90;;;5.50;;
24439;SDS011;12618;54.386;18.394;2023-04-24T21:04:02;6.80;;;5.60;;
24439;SDS011;12618;54.386;18.394;2023-04-24T21:06:35;6.60;;;6.00;;
24439;SDS011;12618;54.386;18.394;2023-04-24T21:09:08;6.80;;;6.00;;
24439;SDS011;12618;54.386;18.394;2023-04-24T21:11:42;7.90;;;6.20;;
24439;SDS011;12618;54.386;18.394;2023-04-24T21:14:16;10.80;;;6.50;;
24439;SDS011;12618;54.386;18.394;2023-04-24T21:16:50;8.90;;;6.70;;
24439;SDS011;12618;54.386;18.394;2023-04-24T21:19:24;8.10;;;6.30;;
24439;SDS011;12618;54.386;18.394;2023-04-24T21:21:57;9.20;;;6.80;;
24439;SDS011;12618;54.386;18.394;2023-04-24T21:24:32;7.80;;;6.60;;
24439;SDS011;12618;54.386;18.394;2023-04-24T21:27:07;8.50;;;7.00;;
24439;SDS011;12618;54.386;18.394;2023-04-24T21:29:46;8.60;;;7.10;;
24439;SDS011;12618;54.386;18.394;2023-04-24T21:32:19;7.80;;;7.00;;
24439;SDS011;12618;54.386;18.394;2023-04-24T21:34:53;7.50;;;6.70;;
24439;SDS011;12618;54.386;18.394;2023-04-24T21:37:26;10.00;;;6.30;;
24439;SDS011;12618;54.386;18.394;2023-04-24T21:39:59;8.10;;;7.20;;
24439;SDS011;12618;54.386;18.394;2023-04-24T21:42:34;9.30;;;7.50;;
24439;SDS011;12618;54.386;18.394;2023-04-24T21:45:07;8.70;;;6.90;;
24439;SDS011;12618;54.386;18.394;2023-04-24T21:47:41;7.40;;;6.70;;
24439;SDS011;12618;54.386;18.394;2023-04-24T21:50:16;7.50;;;6.80;;
24439;SDS011;12618;54.386;18.394;2023-04-24T21:52:52;10.20;;;7.00;;
24439;SDS011;12618;54.386;18.394;2023-04-24T21:55:28;10.00;;;7.10;;
24439;SDS011;12618;54.386;18.394;2023-04-24T21:58:02;11.00;;;6.80;;
24439;SDS011;12618;54.386;18.394;2023-04-24T22:00:35;7.20;;;6.20;;
24439;SDS011;12618;54.386;18.394;2023-04-24T22:03:08;8.60;;;6.30;;
24439;SDS011;12618;54.386;18.394;2023-04-24T22:08:16;7.20;;;6.40;;
24439;SDS011;12618;54.386;18.394;2023-04-24T22:10:50;7.70;;;6.10;;
24439;SDS011;12618;54.386;18.394;2023-04-24T22:13:24;8.10;;;6.60;;
24439;SDS011;12618;54.386;18.394;2023-04-24T22:15:59;7.30;;;6.40;;
24439;SDS011;12618;54.386;18.394;2023-04-24T22:18:34;7.30;;;6.40;;
24439;SDS011;12618;54.386;18.394;2023-04-24T22:21:18;7.20;;;6.40;;
24439;SDS011;12618;54.386;18.394;2023-04-24T22:23:53;9.00;;;6.60;;
24439;SDS011;12618;54.386;18.394;2023-04-24T22:26:27;7.70;;;6.00;;
24439;SDS011;12618;54.386;18.394;2023-04-24T22:29:00;9.00;;;6.00;;
24439;SDS011;12618;54.386;18.394;2023-04-24T22:31:33;8.30;;;6.00;;
24439;SDS011;12618;54.386;18.394;2023-04-24T22:34:07;6.70;;;6.00;;
24439;SDS011;12618;54.386;18.394;2023-04-24T22:36:40;6.30;;;5.60;;
24439;SDS011;12618;54.386;18.394;2023-04-24T22:39:13;6.80;;;5.80;;
24439;SDS011;12618;54.386;18.394;2023-04-24T22:41:49;6.50;;;5.90;;
24439;SDS011;12618;54.386;18.394;2023-04-24T22:44:24;6.70;;;6.00;;
24439;SDS011;12618;54.386;18.394;2023-04-24T22:46:59;7.40;;;6.30;;
24439;SDS011;12618;54.386;18.394;2023-04-24T22:49:36;7.50;;;6.70;;
24439;SDS011;12618;54.386;18.394;2023-04-24T22:52:09;7.40;;;6.60;;
24439;SDS011;12618;54.386;18.394;2023-04-24T22:54:46;8.30;;;7.30;;
24439;SDS011;12618;54.386;18.394;2023-04-24T22:57:19;7.60;;;6.50;;
24439;SDS011;12618;54.386;18.394;2023-04-24T22:59:55;7.10;;;6.40;;
24439;SDS011;12618;54.386;18.394;2023-04-24T23:02:29;7.70;;;6.70;;
24439;SDS011;12618;54.386;18.394;2023-04-24T23:05:04;7.50;;;6.40;;
24439;SDS011;12618;54.386;18.394;2023-04-24T23:07:42;7.80;;;6.80;;
24439;SDS011;12618;54.386;18.394;2023-04-24T23:10:17;7.00;;;6.10;;
24439;SDS011;12618;54.386;18.394;2023-04-24T23:12:51;8.00;;;6.60;;
24439;SDS011;12618;54.386;18.394;2023-04-24T23:15:24;7.40;;;6.60;;
24439;SDS011;12618;54.386;18.394;2023-04-24T23:17:57;7.10;;;6.40;;
24439;SDS011;12618;54.386;18.394;2023-04-24T23:20:31;8.10;;;6.90;;
24439;SDS011;12618;54.386;18.394;2023-04-24T23:25:41;7.00;;;6.40;;
24439;SDS011;12618;54.386;18.394;2023-04-24T23:28:17;7.40;;;6.70;;
24439;SDS011;12618;54.386;18.394;2023-04-24T23:30:51;8.00;;;6.90;;
24439;SDS011;12618;54.386;18.394;2023-04-24T23:33:25;8.50;;;7.50;;
24439;SDS011;12618;54.386;18.394;2023-04-24T23:35:59;8.30;;;7.50;;
24439;SDS011;12618;54.386;18.394;2023-04-24T23:38:36;8.50;;;7.20;;
24439;SDS011;12618;54.386;18.394;2023-04-24T23:41:20;8.20;;;7.20;;
24439;SDS011;12618;54.386;18.394;2023-04-24T23:43:55;8.60;;;7.60;;
24439;SDS011;12618;54.386;18.394;2023-04-24T23:46:28;8.00;;;7.20;;
24439;SDS011;12618;54.386;18.394;2023-04-24T23:49:01;8.20;;;7.30;;
24439;SDS011;12618;54.386;18.394;2023-04-24T23:51:41;8.80;;;7.20;;
24439;SDS011;12618;54.386;18.394;2023-04-24T23:54:20;8.30;;;7.20;;
24439;SDS011;12618;54.386;18.394;2023-04-24T23:56:54;8.30;;;7.50;;
24439;SDS011;12618;54.386;18.394;2023-04-24T23:59:27;9.20;;;7.20;;
